Campbell AAF (Fort Campbell) Air Field
KHOP : now visible

Airfield :











YOU CAN JOIN US ON...

 
LOGIN :

Register | Disclaimer

   EN    FR    IT 

 









Legend :    VFR   Marginal VFR   IFR   Intensive IFR   Very Intensive IFR
Visi :
Ceiling :
>= 8 km
>= 3000ft
5 to 8 km
1000 to 3000 ft
1500m to 5 km
500 to 1000 ft
800 to 1500m
200 to 500 ft
< 800m
< 200 ft
Symbols :   Thunderstorms  Fog  Heavy snow  Heavy precipitations  Wind > 20 kt






- Airport Elevation : 573 ft


KHOP - Campbell AAF (Fort Campbell) Air Field

CURRENT METAR :
  • 282055Z AUTO 31013G21KT 10SM CLR 06/M09 A3024 RMK AO2 SLP242 T00611086 52041

EXPIRED METARs :
  • 281955Z AUTO 33015KT 10SM BKN200 06/M08 A3020 RMK AO2 SLP228 T00551077
  • 281855Z AUTO 33017G20KT 10SM FEW120 FEW150 SCT180 BKN210 06/M06 A3016 RMK AO2 PK WND 32026/03 SLP215 T00591060
  • 281755Z AUTO 33014G21KT 10SM FEW120 FEW160 BKN200 06/M02 A3011 RMK AO2 PRESRR SLP197 60008 T00631018 10100 20045 52068
  • 281655Z AUTO 31019G24KT 10SM FEW025 06/M01 A3005 RMK AO2 PRESRR SLP177 T00621010

TAF TAF KHOP
Valid from the 28 at 16:00 until the 29 at 22:00 UTC


281600Z 2816/2922 32015G25KT 9999 BKN030 QNH2997INS
TEMPO 2816/2818 32025G35KT
BECMG 2817/2818 32015G25KT 9999 FEW030 SCT150 QNH3009INS
TEMPO 2818/2820 32025G35KT
BECMG 2819/2820 32010G20KT 9999 FEW200 QNH3017INS
TEMPO 2820/2821 32025G35KT
BECMG 2822/2823 33010G15KT 9999 SKC QNH3025INS
BECMG 2901/2902 VRB06KT 9999 SKC QNH3033INS TX07/2821Z TN00/2910Z
KZME FIR / North America



MET'MAP, your aeronautical weather chart ! - Copyright ORBIFLY December 2007 - Disclaimer

ORBIFLY MET'MAP TEAM :

Programming & Development : Alexandra Zaïnal
Original concept : Baudouin d'Aumeries
Technical & hardware support : Manuel Goepfert
Assistance : Marc-Olivier Méhu




SOURCES & CREDITS :

   NOAA       Earth
Advisory